createdAt,value
2022-09-27T00:03:05.735Z,14.50
2022-09-27T00:23:05.378Z,10.30
2022-09-27T00:43:05.056Z,12.00
2022-09-27T01:03:04.747Z,11.30
2022-09-27T01:23:04.499Z,15.00
2022-09-27T01:43:04.184Z,11.90
2022-09-27T02:03:03.942Z,14.40
2022-09-27T02:23:03.616Z,13.70
2022-09-27T02:43:03.331Z,8.00
2022-09-27T03:03:03.117Z,9.60
2022-09-27T03:23:02.802Z,5.50
2022-09-27T03:43:02.570Z,4.70
2022-09-27T04:03:02.287Z,2.50
2022-09-27T04:23:02.012Z,4.20
2022-09-27T04:43:01.750Z,2.40
2022-09-27T05:03:01.581Z,1.50
2022-09-27T05:23:01.222Z,1.10
2022-09-27T05:43:00.970Z,1.50
2022-09-27T06:03:00.748Z,2.10
2022-09-27T06:23:00.507Z,1.10
2022-09-27T06:43:00.224Z,1.10
2022-09-27T07:02:59.927Z,0.70
2022-09-27T07:22:59.648Z,1.20
2022-09-27T07:42:59.404Z,1.60
2022-09-27T08:02:59.125Z,0.90
2022-09-27T08:22:58.872Z,1.30
2022-09-27T08:42:58.569Z,1.40
2022-09-27T09:02:58.303Z,0.30
2022-09-27T09:22:58.029Z,0.50
2022-09-27T09:42:57.758Z,2.40
2022-09-27T10:02:57.482Z,1.10
2022-09-27T10:22:57.240Z,1.00
2022-09-27T10:42:56.959Z,0.90
2022-09-27T11:02:56.684Z,0.60
2022-09-27T11:22:56.463Z,1.40
2022-09-27T11:42:56.125Z,0.60
2022-09-27T12:02:55.911Z,2.00
2022-09-27T12:23:00.290Z,1.70
2022-09-27T12:42:55.301Z,2.50
2022-09-27T13:03:14.745Z,1.80
2022-09-27T13:22:54.763Z,0.10
2022-09-27T13:42:54.490Z,0.50
2022-09-27T14:02:54.246Z,0.80
2022-09-27T14:22:53.943Z,2.40
2022-09-27T14:42:53.661Z,0.60
2022-09-27T15:02:53.441Z,0.30
2022-09-27T15:22:53.130Z,0.90
2022-09-27T15:42:52.837Z,0.50
2022-09-27T16:02:52.544Z,1.40
2022-09-27T16:22:52.272Z,1.40
2022-09-27T16:42:51.973Z,1.50
2022-09-27T17:02:53.005Z,1.20
2022-09-27T17:22:51.399Z,1.20
2022-09-27T17:42:51.134Z,0.70
2022-09-27T18:02:50.919Z,2.20
2022-09-27T18:22:50.708Z,1.60
2022-09-27T18:42:53.225Z,1.20
2022-09-27T19:02:52.978Z,1.20
2022-09-27T19:22:52.704Z,2.20
2022-09-27T19:42:52.421Z,2.40
2022-09-27T20:02:52.283Z,2.90
2022-09-27T20:22:51.924Z,2.50
2022-09-27T20:42:51.627Z,2.50
2022-09-27T21:02:51.360Z,4.20
2022-09-27T21:22:51.106Z,4.50
2022-09-27T21:42:54.406Z,2.30
2022-09-27T22:02:50.531Z,2.80
2022-09-27T22:22:50.241Z,2.70
2022-09-27T22:42:49.973Z,5.50
2022-09-27T23:02:49.752Z,3.60
2022-09-27T23:22:49.426Z,4.70
2022-09-27T23:42:49.150Z,5.80
